sensor_id;sensor_type;location;lat;lon;timestamp;temperature;humidity
72576;DHT22;60613;48.658;2.328;2022-08-11T00:00:01;29.50;31.50
72576;DHT22;60613;48.658;2.328;2022-08-11T00:02:33;29.50;31.60
72576;DHT22;60613;48.658;2.328;2022-08-11T00:05:14;29.50;31.60
72576;DHT22;60613;48.658;2.328;2022-08-11T00:07:53;29.50;31.60
72576;DHT22;60613;48.658;2.328;2022-08-11T00:10:25;29.50;31.70
72576;DHT22;60613;48.658;2.328;2022-08-11T00:12:54;29.50;31.70
72576;DHT22;60613;48.658;2.328;2022-08-11T00:15:22;29.50;31.80
72576;DHT22;60613;48.658;2.328;2022-08-11T00:17:49;29.50;31.60
72576;DHT22;60613;48.658;2.328;2022-08-11T00:20:20;29.50;31.60
72576;DHT22;60613;48.658;2.328;2022-08-11T00:22:47;29.50;31.70
72576;DHT22;60613;48.658;2.328;2022-08-11T00:25:17;29.50;31.70
72576;DHT22;60613;48.658;2.328;2022-08-11T00:27:44;29.50;31.70
72576;DHT22;60613;48.658;2.328;2022-08-11T00:30:12;29.60;31.80
72576;DHT22;60613;48.658;2.328;2022-08-11T00:32:43;29.50;31.70
72576;DHT22;60613;48.658;2.328;2022-08-11T00:35:16;29.50;31.70
72576;DHT22;60613;48.658;2.328;2022-08-11T00:37:49;29.60;31.80
72576;DHT22;60613;48.658;2.328;2022-08-11T00:40:32;29.60;31.80
72576;DHT22;60613;48.658;2.328;2022-08-11T00:45:42;29.60;31.80
72576;DHT22;60613;48.658;2.328;2022-08-11T00:48:18;29.50;31.80
72576;DHT22;60613;48.658;2.328;2022-08-11T01:13:36;29.60;32.00
72576;DHT22;60613;48.658;2.328;2022-08-11T01:33:24;29.50;32.10
72576;DHT22;60613;48.658;2.328;2022-08-11T01:36:19;29.60;32.20
72576;DHT22;60613;48.658;2.328;2022-08-11T01:42:15;29.50;32.10
72576;DHT22;60613;48.658;2.328;2022-08-11T01:45:05;29.50;32.10
72576;DHT22;60613;48.658;2.328;2022-08-11T01:48:07;29.50;32.10
72576;DHT22;60613;48.658;2.328;2022-08-11T02:01:37;29.40;32.20
72576;DHT22;60613;48.658;2.328;2022-08-11T02:07:23;29.50;32.30
72576;DHT22;60613;48.658;2.328;2022-08-11T02:12:58;29.40;32.20
72576;DHT22;60613;48.658;2.328;2022-08-11T02:15:33;29.40;32.20
72576;DHT22;60613;48.658;2.328;2022-08-11T02:18:15;29.40;32.30
72576;DHT22;60613;48.658;2.328;2022-08-11T02:21:05;29.40;32.20
72576;DHT22;60613;48.658;2.328;2022-08-11T02:24:02;29.40;32.30
72576;DHT22;60613;48.658;2.328;2022-08-11T02:26:54;29.40;32.50
72576;DHT22;60613;48.658;2.328;2022-08-11T02:32:17;29.40;32.40
72576;DHT22;60613;48.658;2.328;2022-08-11T02:35:23;29.40;32.40
72576;DHT22;60613;48.658;2.328;2022-08-11T02:38:36;29.40;32.40
72576;DHT22;60613;48.658;2.328;2022-08-11T02:47:14;29.40;32.40
72576;DHT22;60613;48.658;2.328;2022-08-11T02:55:29;29.30;32.50
72576;DHT22;60613;48.658;2.328;2022-08-11T02:58:32;29.30;32.50
72576;DHT22;60613;48.658;2.328;2022-08-11T03:01:11;29.30;32.50
72576;DHT22;60613;48.658;2.328;2022-08-11T03:03:52;29.30;32.60
72576;DHT22;60613;48.658;2.328;2022-08-11T03:06:50;29.30;32.60
72576;DHT22;60613;48.658;2.328;2022-08-11T03:12:17;29.20;32.70
72576;DHT22;60613;48.658;2.328;2022-08-11T03:20:41;29.20;32.80
72576;DHT22;60613;48.658;2.328;2022-08-11T03:25:52;29.20;32.70
72576;DHT22;60613;48.658;2.328;2022-08-11T03:33:40;29.20;32.80
72576;DHT22;60613;48.658;2.328;2022-08-11T03:42:53;29.10;32.90
72576;DHT22;60613;48.658;2.328;2022-08-11T03:48:22;29.10;32.90
72576;DHT22;60613;48.658;2.328;2022-08-11T03:51:22;29.10;32.90
72576;DHT22;60613;48.658;2.328;2022-08-11T03:56:41;29.10;32.70
72576;DHT22;60613;48.658;2.328;2022-08-11T03:59:31;29.10;32.90
72576;DHT22;60613;48.658;2.328;2022-08-11T04:30:41;29.00;32.70
72576;DHT22;60613;48.658;2.328;2022-08-11T04:39:04;29.00;32.70
72576;DHT22;60613;48.658;2.328;2022-08-11T04:53:25;29.00;32.70
72576;DHT22;60613;48.658;2.328;2022-08-11T04:56:17;29.00;32.70
72576;DHT22;60613;48.658;2.328;2022-08-11T04:59:58;28.90;33.40
72576;DHT22;60613;48.658;2.328;2022-08-11T05:08:20;28.90;32.60
72576;DHT22;60613;48.658;2.328;2022-08-11T05:10:57;28.90;32.70
72576;DHT22;60613;48.658;2.328;2022-08-11T05:13:33;28.90;32.70
72576;DHT22;60613;48.658;2.328;2022-08-11T05:16:22;28.90;32.70
72576;DHT22;60613;48.658;2.328;2022-08-11T05:19:06;28.90;32.70
72576;DHT22;60613;48.658;2.328;2022-08-11T05:21:58;28.90;32.70
72576;DHT22;60613;48.658;2.328;2022-08-11T05:24:46;28.90;32.80
72576;DHT22;60613;48.658;2.328;2022-08-11T05:31:02;28.80;32.80
72576;DHT22;60613;48.658;2.328;2022-08-11T05:34:01;28.80;32.70
72576;DHT22;60613;48.658;2.328;2022-08-11T05:36:48;28.80;32.70
72576;DHT22;60613;48.658;2.328;2022-08-11T05:39:17;28.80;32.70
72576;DHT22;60613;48.658;2.328;2022-08-11T05:42:04;28.80;32.60
72576;DHT22;60613;48.658;2.328;2022-08-11T05:44:50;28.80;32.70
72576;DHT22;60613;48.658;2.328;2022-08-11T05:47:37;28.80;32.70
72576;DHT22;60613;48.658;2.328;2022-08-11T05:50:22;28.80;32.80
72576;DHT22;60613;48.658;2.328;2022-08-11T05:53:12;28.80;32.70
72576;DHT22;60613;48.658;2.328;2022-08-11T05:55:57;28.80;32.70
72576;DHT22;60613;48.658;2.328;2022-08-11T05:58:43;28.80;32.60
72576;DHT22;60613;48.658;2.328;2022-08-11T06:01:27;28.80;33.00
72576;DHT22;60613;48.658;2.328;2022-08-11T06:03:56;28.80;32.80
72576;DHT22;60613;48.658;2.328;2022-08-11T06:09:26;28.80;32.80
72576;DHT22;60613;48.658;2.328;2022-08-11T06:11:54;28.80;32.70
72576;DHT22;60613;48.658;2.328;2022-08-11T06:14:21;28.70;34.00
72576;DHT22;60613;48.658;2.328;2022-08-11T06:16:50;28.70;32.80
72576;DHT22;60613;48.658;2.328;2022-08-11T06:19:19;28.70;32.80
72576;DHT22;60613;48.658;2.328;2022-08-11T06:21:47;28.70;32.90
72576;DHT22;60613;48.658;2.328;2022-08-11T06:24:16;28.70;32.70
72576;DHT22;60613;48.658;2.328;2022-08-11T06:26:48;28.70;32.80
72576;DHT22;60613;48.658;2.328;2022-08-11T06:29:17;28.70;32.70
72576;DHT22;60613;48.658;2.328;2022-08-11T06:31:56;28.70;32.70
72576;DHT22;60613;48.658;2.328;2022-08-11T06:39:53;28.80;32.10
72576;DHT22;60613;48.658;2.328;2022-08-11T06:45:03;28.60;29.70
72576;DHT22;60613;48.658;2.328;2022-08-11T06:47:33;28.50;29.50
72576;DHT22;60613;48.658;2.328;2022-08-11T06:49:59;28.20;29.10
72576;DHT22;60613;48.658;2.328;2022-08-11T06:52:45;28.20;29.40
72576;DHT22;60613;48.658;2.328;2022-08-11T06:55:24;28.30;29.70
72576;DHT22;60613;48.658;2.328;2022-08-11T06:58:16;28.30;29.60
72576;DHT22;60613;48.658;2.328;2022-08-11T07:01:11;28.10;29.20
72576;DHT22;60613;48.658;2.328;2022-08-11T07:03:43;28.10;28.90
72576;DHT22;60613;48.658;2.328;2022-08-11T07:06:32;28.10;29.20
72576;DHT22;60613;48.658;2.328;2022-08-11T07:09:23;28.00;29.90
72576;DHT22;60613;48.658;2.328;2022-08-11T07:12:16;28.00;29.30
72576;DHT22;60613;48.658;2.328;2022-08-11T07:15:08;28.20;29.90
72576;DHT22;60613;48.658;2.328;2022-08-11T07:17:54;28.20;29.60
72576;DHT22;60613;48.658;2.328;2022-08-11T07:20:40;28.20;29.20
72576;DHT22;60613;48.658;2.328;2022-08-11T07:23:28;28.30;29.00
72576;DHT22;60613;48.658;2.328;2022-08-11T07:26:16;28.20;28.90
72576;DHT22;60613;48.658;2.328;2022-08-11T07:29:01;28.30;28.90
72576;DHT22;60613;48.658;2.328;2022-08-11T07:36:48;28.40;28.70
72576;DHT22;60613;48.658;2.328;2022-08-11T07:39:21;28.40;28.50
72576;DHT22;60613;48.658;2.328;2022-08-11T07:41:49;28.40;28.50
72576;DHT22;60613;48.658;2.328;2022-08-11T07:44:16;28.40;28.30
72576;DHT22;60613;48.658;2.328;2022-08-11T07:46:44;28.50;28.20
72576;DHT22;60613;48.658;2.328;2022-08-11T07:49:32;28.50;28.30
72576;DHT22;60613;48.658;2.328;2022-08-11T07:52:17;28.60;28.00
72576;DHT22;60613;48.658;2.328;2022-08-11T07:54:56;28.80;28.10
72576;DHT22;60613;48.658;2.328;2022-08-11T07:57:23;28.70;27.90
72576;DHT22;60613;48.658;2.328;2022-08-11T08:00:08;28.70;28.00
72576;DHT22;60613;48.658;2.328;2022-08-11T08:02:53;28.80;27.90
72576;DHT22;60613;48.658;2.328;2022-08-11T08:05:38;28.90;27.90
72576;DHT22;60613;48.658;2.328;2022-08-11T08:08:22;28.80;28.00
72576;DHT22;60613;48.658;2.328;2022-08-11T08:11:08;28.90;28.00
72576;DHT22;60613;48.658;2.328;2022-08-11T08:13:53;28.80;28.90
72576;DHT22;60613;48.658;2.328;2022-08-11T08:16:38;28.70;28.10
72576;DHT22;60613;48.658;2.328;2022-08-11T08:19:23;28.80;28.10
72576;DHT22;60613;48.658;2.328;2022-08-11T08:21:49;28.80;28.10
72576;DHT22;60613;48.658;2.328;2022-08-11T08:24:16;28.90;28.10
72576;DHT22;60613;48.658;2.328;2022-08-11T08:26:44;29.00;27.90
72576;DHT22;60613;48.658;2.328;2022-08-11T08:29:31;29.00;27.90
72576;DHT22;60613;48.658;2.328;2022-08-11T08:32:17;29.00;27.90
72576;DHT22;60613;48.658;2.328;2022-08-11T08:34:45;28.90;28.10
72576;DHT22;60613;48.658;2.328;2022-08-11T08:37:12;29.00;28.20
72576;DHT22;60613;48.658;2.328;2022-08-11T08:39:38;29.00;28.20
72576;DHT22;60613;48.658;2.328;2022-08-11T08:42:12;29.00;28.20
72576;DHT22;60613;48.658;2.328;2022-08-11T08:44:44;29.00;28.00
72576;DHT22;60613;48.658;2.328;2022-08-11T08:47:15;29.00;28.00
72576;DHT22;60613;48.658;2.328;2022-08-11T08:49:48;29.10;28.00
72576;DHT22;60613;48.658;2.328;2022-08-11T08:52:20;28.90;28.00
72576;DHT22;60613;48.658;2.328;2022-08-11T08:54:55;29.00;28.80
72576;DHT22;60613;48.658;2.328;2022-08-11T08:57:23;29.00;29.30
72576;DHT22;60613;48.658;2.328;2022-08-11T08:59:51;29.00;29.20
72576;DHT22;60613;48.658;2.328;2022-08-11T09:02:19;29.10;28.80
72576;DHT22;60613;48.658;2.328;2022-08-11T09:04:48;29.10;28.70
72576;DHT22;60613;48.658;2.328;2022-08-11T09:07:16;29.20;28.80
72576;DHT22;60613;48.658;2.328;2022-08-11T09:09:49;29.20;28.90
72576;DHT22;60613;48.658;2.328;2022-08-11T09:12:20;29.10;28.80
72576;DHT22;60613;48.658;2.328;2022-08-11T09:14:50;29.20;28.90
72576;DHT22;60613;48.658;2.328;2022-08-11T09:17:28;29.20;28.90
72576;DHT22;60613;48.658;2.328;2022-08-11T09:19:57;29.30;29.00
72576;DHT22;60613;48.658;2.328;2022-08-11T09:22:26;29.30;28.70
72576;DHT22;60613;48.658;2.328;2022-08-11T09:25:10;29.30;29.00
72576;DHT22;60613;48.658;2.328;2022-08-11T09:27:55;29.30;28.50
72576;DHT22;60613;48.658;2.328;2022-08-11T09:30:22;29.40;28.50
72576;DHT22;60613;48.658;2.328;2022-08-11T09:32:57;29.40;28.10
72576;DHT22;60613;48.658;2.328;2022-08-11T09:35:29;29.40;28.10
72576;DHT22;60613;48.658;2.328;2022-08-11T09:37:56;29.40;28.00
72576;DHT22;60613;48.658;2.328;2022-08-11T09:40:44;29.40;28.40
72576;DHT22;60613;48.658;2.328;2022-08-11T09:43:12;29.40;28.10
72576;DHT22;60613;48.658;2.328;2022-08-11T09:45:59;29.30;28.50
72576;DHT22;60613;48.658;2.328;2022-08-11T09:48:28;29.20;28.80
72576;DHT22;60613;48.658;2.328;2022-08-11T09:50:55;29.20;28.70
72576;DHT22;60613;48.658;2.328;2022-08-11T09:53:24;29.20;28.90
72576;DHT22;60613;48.658;2.328;2022-08-11T09:55:50;29.20;29.10
72576;DHT22;60613;48.658;2.328;2022-08-11T09:58:17;29.20;29.20
72576;DHT22;60613;48.658;2.328;2022-08-11T10:00:48;29.20;29.30
72576;DHT22;60613;48.658;2.328;2022-08-11T10:03:21;29.20;29.30
72576;DHT22;60613;48.658;2.328;2022-08-11T10:05:55;29.20;29.30
72576;DHT22;60613;48.658;2.328;2022-08-11T10:08:42;29.20;29.40
72576;DHT22;60613;48.658;2.328;2022-08-11T10:11:12;29.20;29.30
72576;DHT22;60613;48.658;2.328;2022-08-11T10:13:42;29.20;29.40
72576;DHT22;60613;48.658;2.328;2022-08-11T10:16:29;29.20;29.50
72576;DHT22;60613;48.658;2.328;2022-08-11T10:18:59;29.30;29.40
72576;DHT22;60613;48.658;2.328;2022-08-11T10:21:35;29.30;29.40
72576;DHT22;60613;48.658;2.328;2022-08-11T10:24:02;29.30;29.50
72576;DHT22;60613;48.658;2.328;2022-08-11T10:26:49;29.30;29.50
72576;DHT22;60613;48.658;2.328;2022-08-11T10:29:30;29.30;29.60
72576;DHT22;60613;48.658;2.328;2022-08-11T10:32:22;29.30;30.80
72576;DHT22;60613;48.658;2.328;2022-08-11T10:35:07;29.30;29.90
72576;DHT22;60613;48.658;2.328;2022-08-11T10:37:37;29.30;30.10
72576;DHT22;60613;48.658;2.328;2022-08-11T10:40:06;29.30;30.20
72576;DHT22;60613;48.658;2.328;2022-08-11T10:42:34;29.30;30.20
72576;DHT22;60613;48.658;2.328;2022-08-11T10:45:18;29.30;29.50
72576;DHT22;60613;48.658;2.328;2022-08-11T10:48:04;29.40;29.60
72576;DHT22;60613;48.658;2.328;2022-08-11T10:50:31;29.40;29.70
72576;DHT22;60613;48.658;2.328;2022-08-11T10:53:17;29.40;29.90
72576;DHT22;60613;48.658;2.328;2022-08-11T10:56:02;29.50;30.10
72576;DHT22;60613;48.658;2.328;2022-08-11T10:58:47;29.50;30.20
72576;DHT22;60613;48.658;2.328;2022-08-11T11:01:25;29.50;30.00
72576;DHT22;60613;48.658;2.328;2022-08-11T11:03:54;29.50;30.50
72576;DHT22;60613;48.658;2.328;2022-08-11T11:09:07;29.40;30.10
72576;DHT22;60613;48.658;2.328;2022-08-11T11:11:37;29.50;29.80
72576;DHT22;60613;48.658;2.328;2022-08-11T11:14:27;29.40;30.10
72576;DHT22;60613;48.658;2.328;2022-08-11T11:17:12;29.50;29.90
72576;DHT22;60613;48.658;2.328;2022-08-11T11:19:52;29.40;31.40
72576;DHT22;60613;48.658;2.328;2022-08-11T11:22:20;29.50;29.90
72576;DHT22;60613;48.658;2.328;2022-08-11T11:25:12;29.50;29.60
72576;DHT22;60613;48.658;2.328;2022-08-11T11:30:24;29.60;29.80
72576;DHT22;60613;48.658;2.328;2022-08-11T11:38:14;29.60;29.80
72576;DHT22;60613;48.658;2.328;2022-08-11T11:40:43;29.60;30.50
72576;DHT22;60613;48.658;2.328;2022-08-11T11:43:29;29.70;30.10
72576;DHT22;60613;48.658;2.328;2022-08-11T11:45:57;29.80;30.30
72576;DHT22;60613;48.658;2.328;2022-08-11T11:48:22;29.90;31.70
72576;DHT22;60613;48.658;2.328;2022-08-11T11:50:54;30.00;31.90
72576;DHT22;60613;48.658;2.328;2022-08-11T11:53:20;30.00;31.70
72576;DHT22;60613;48.658;2.328;2022-08-11T11:55:47;30.00;31.80
72576;DHT22;60613;48.658;2.328;2022-08-11T11:58:13;29.90;31.80
72576;DHT22;60613;48.658;2.328;2022-08-11T12:00:58;29.80;33.00
72576;DHT22;60613;48.658;2.328;2022-08-11T12:03:46;30.00;32.20
72576;DHT22;60613;48.658;2.328;2022-08-11T12:06:13;30.00;32.40
72576;DHT22;60613;48.658;2.328;2022-08-11T12:08:42;30.10;31.80
72576;DHT22;60613;48.658;2.328;2022-08-11T12:11:10;30.00;32.50
72576;DHT22;60613;48.658;2.328;2022-08-11T12:13:57;30.00;32.20
72576;DHT22;60613;48.658;2.328;2022-08-11T12:16:23;30.00;32.30
72576;DHT22;60613;48.658;2.328;2022-08-11T12:18:54;30.00;32.20
72576;DHT22;60613;48.658;2.328;2022-08-11T12:21:22;30.10;32.60
72576;DHT22;60613;48.658;2.328;2022-08-11T12:23:49;30.00;32.70
72576;DHT22;60613;48.658;2.328;2022-08-11T12:26:34;30.10;32.60
72576;DHT22;60613;48.658;2.328;2022-08-11T12:29:22;30.10;32.60
72576;DHT22;60613;48.658;2.328;2022-08-11T12:31:55;30.10;32.30
72576;DHT22;60613;48.658;2.328;2022-08-11T12:34:25;30.20;32.10
72576;DHT22;60613;48.658;2.328;2022-08-11T12:37:00;30.30;31.90
72576;DHT22;60613;48.658;2.328;2022-08-11T12:39:35;30.20;32.00
72576;DHT22;60613;48.658;2.328;2022-08-11T12:42:20;30.10;32.20
72576;DHT22;60613;48.658;2.328;2022-08-11T12:45:12;30.00;32.80
72576;DHT22;60613;48.658;2.328;2022-08-11T12:48:17;29.90;33.50
72576;DHT22;60613;48.658;2.328;2022-08-11T12:51:08;29.90;33.30
72576;DHT22;60613;48.658;2.328;2022-08-11T12:54:01;30.00;33.40
72576;DHT22;60613;48.658;2.328;2022-08-11T12:56:37;30.00;33.20
72576;DHT22;60613;48.658;2.328;2022-08-11T12:59:23;30.10;33.00
72576;DHT22;60613;48.658;2.328;2022-08-11T13:02:10;30.10;32.90
72576;DHT22;60613;48.658;2.328;2022-08-11T13:04:55;30.10;33.40
72576;DHT22;60613;48.658;2.328;2022-08-11T13:07:26;30.10;33.40
72576;DHT22;60613;48.658;2.328;2022-08-11T13:09:54;30.10;33.50
72576;DHT22;60613;48.658;2.328;2022-08-11T13:12:22;30.20;33.50
72576;DHT22;60613;48.658;2.328;2022-08-11T13:15:08;30.10;33.20
72576;DHT22;60613;48.658;2.328;2022-08-11T13:17:35;30.20;33.20
72576;DHT22;60613;48.658;2.328;2022-08-11T13:20:03;30.20;32.70
72576;DHT22;60613;48.658;2.328;2022-08-11T13:22:30;30.30;32.60
72576;DHT22;60613;48.658;2.328;2022-08-11T13:24:56;30.30;32.90
72576;DHT22;60613;48.658;2.328;2022-08-11T13:27:23;30.20;33.20
72576;DHT22;60613;48.658;2.328;2022-08-11T13:29:50;30.30;33.20
72576;DHT22;60613;48.658;2.328;2022-08-11T13:32:38;30.30;32.80
72576;DHT22;60613;48.658;2.328;2022-08-11T13:35:05;30.30;32.70
72576;DHT22;60613;48.658;2.328;2022-08-11T13:37:31;30.30;32.70
72576;DHT22;60613;48.658;2.328;2022-08-11T13:39:59;30.20;32.50
72576;DHT22;60613;48.658;2.328;2022-08-11T13:42:26;30.30;33.20
72576;DHT22;60613;48.658;2.328;2022-08-11T13:44:53;30.30;33.00
72576;DHT22;60613;48.658;2.328;2022-08-11T13:47:21;30.30;33.00
72576;DHT22;60613;48.658;2.328;2022-08-11T13:49:48;30.30;33.90
72576;DHT22;60613;48.658;2.328;2022-08-11T13:52:16;30.50;35.10
72576;DHT22;60613;48.658;2.328;2022-08-11T13:54:45;30.40;34.20
72576;DHT22;60613;48.658;2.328;2022-08-11T13:57:13;30.30;33.90
72576;DHT22;60613;48.658;2.328;2022-08-11T13:59:41;30.20;33.90
72576;DHT22;60613;48.658;2.328;2022-08-11T14:02:13;30.10;33.90
72576;DHT22;60613;48.658;2.328;2022-08-11T14:04:49;30.10;33.80
72576;DHT22;60613;48.658;2.328;2022-08-11T14:07:20;30.10;33.90
72576;DHT22;60613;48.658;2.328;2022-08-11T14:09:55;30.00;33.80
72576;DHT22;60613;48.658;2.328;2022-08-11T14:12:33;30.00;33.80
72576;DHT22;60613;48.658;2.328;2022-08-11T14:15:24;30.00;34.00
72576;DHT22;60613;48.658;2.328;2022-08-11T14:17:58;30.10;34.10
72576;DHT22;60613;48.658;2.328;2022-08-11T14:20:31;30.30;34.50
72576;DHT22;60613;48.658;2.328;2022-08-11T14:23:20;30.20;34.60
72576;DHT22;60613;48.658;2.328;2022-08-11T14:25:48;30.30;34.40
72576;DHT22;60613;48.658;2.328;2022-08-11T14:28:33;30.40;34.10
72576;DHT22;60613;48.658;2.328;2022-08-11T14:31:00;30.30;34.00
72576;DHT22;60613;48.658;2.328;2022-08-11T14:33:27;30.50;33.90
72576;DHT22;60613;48.658;2.328;2022-08-11T14:35:53;30.50;33.70
72576;DHT22;60613;48.658;2.328;2022-08-11T14:38:19;30.40;33.60
72576;DHT22;60613;48.658;2.328;2022-08-11T14:40:46;30.40;33.60
72576;DHT22;60613;48.658;2.328;2022-08-11T14:43:31;30.40;33.30
72576;DHT22;60613;48.658;2.328;2022-08-11T14:46:16;30.50;33.30
72576;DHT22;60613;48.658;2.328;2022-08-11T14:49:01;30.40;33.70
72576;DHT22;60613;48.658;2.328;2022-08-11T14:51:27;30.50;34.00
72576;DHT22;60613;48.658;2.328;2022-08-11T14:53:53;30.50;33.80
72576;DHT22;60613;48.658;2.328;2022-08-11T14:56:39;30.50;34.10
72576;DHT22;60613;48.658;2.328;2022-08-11T14:59:06;30.50;34.00
72576;DHT22;60613;48.658;2.328;2022-08-11T15:01:32;30.60;33.60
72576;DHT22;60613;48.658;2.328;2022-08-11T15:04:18;30.60;33.50
72576;DHT22;60613;48.658;2.328;2022-08-11T15:06:45;30.50;33.80
72576;DHT22;60613;48.658;2.328;2022-08-11T15:09:11;30.50;33.80
72576;DHT22;60613;48.658;2.328;2022-08-11T15:11:37;30.50;33.80
72576;DHT22;60613;48.658;2.328;2022-08-11T15:14:22;30.50;33.80
72576;DHT22;60613;48.658;2.328;2022-08-11T15:17:08;30.50;33.70
72576;DHT22;60613;48.658;2.328;2022-08-11T15:19:36;30.60;33.80
72576;DHT22;60613;48.658;2.328;2022-08-11T15:22:22;30.60;33.50
72576;DHT22;60613;48.658;2.328;2022-08-11T15:25:06;30.80;33.30
72576;DHT22;60613;48.658;2.328;2022-08-11T15:27:34;30.80;33.20
72576;DHT22;60613;48.658;2.328;2022-08-11T15:30:20;30.80;33.30
72576;DHT22;60613;48.658;2.328;2022-08-11T15:33:07;30.80;32.90
72576;DHT22;60613;48.658;2.328;2022-08-11T15:35:53;30.80;31.70
72576;DHT22;60613;48.658;2.328;2022-08-11T15:38:44;30.80;31.30
72576;DHT22;60613;48.658;2.328;2022-08-11T15:41:14;30.90;31.20
72576;DHT22;60613;48.658;2.328;2022-08-11T15:44:01;30.90;31.30
72576;DHT22;60613;48.658;2.328;2022-08-11T15:46:48;30.90;31.80
72576;DHT22;60613;48.658;2.328;2022-08-11T15:49:33;30.90;31.70
72576;DHT22;60613;48.658;2.328;2022-08-11T15:52:09;31.00;31.90
72576;DHT22;60613;48.658;2.328;2022-08-11T15:54:40;31.00;31.80
72576;DHT22;60613;48.658;2.328;2022-08-11T15:57:11;31.00;31.70
72576;DHT22;60613;48.658;2.328;2022-08-11T15:59:58;31.10;31.30
72576;DHT22;60613;48.658;2.328;2022-08-11T16:02:46;31.10;31.30
72576;DHT22;60613;48.658;2.328;2022-08-11T16:05:33;31.20;31.20
72576;DHT22;60613;48.658;2.328;2022-08-11T16:07:59;31.30;31.10
72576;DHT22;60613;48.658;2.328;2022-08-11T16:10:25;31.00;31.20
72576;DHT22;60613;48.658;2.328;2022-08-11T16:13:03;31.10;30.80
72576;DHT22;60613;48.658;2.328;2022-08-11T16:15:36;31.10;30.30
72576;DHT22;60613;48.658;2.328;2022-08-11T16:18:24;31.10;30.10
72576;DHT22;60613;48.658;2.328;2022-08-11T16:21:10;31.10;30.00
72576;DHT22;60613;48.658;2.328;2022-08-11T16:23:39;31.10;31.30
72576;DHT22;60613;48.658;2.328;2022-08-11T16:26:07;31.10;30.70
72576;DHT22;60613;48.658;2.328;2022-08-11T16:28:35;31.10;30.60
72576;DHT22;60613;48.658;2.328;2022-08-11T16:31:01;31.10;30.40
72576;DHT22;60613;48.658;2.328;2022-08-11T16:33:29;31.30;30.40
72576;DHT22;60613;48.658;2.328;2022-08-11T16:35:56;31.30;30.20
72576;DHT22;60613;48.658;2.328;2022-08-11T16:38:42;31.30;30.10
72576;DHT22;60613;48.658;2.328;2022-08-11T16:41:15;31.40;29.90
72576;DHT22;60613;48.658;2.328;2022-08-11T16:44:01;31.30;30.00
72576;DHT22;60613;48.658;2.328;2022-08-11T16:46:47;31.20;30.00
72576;DHT22;60613;48.658;2.328;2022-08-11T16:49:31;31.30;30.90
72576;DHT22;60613;48.658;2.328;2022-08-11T16:51:58;31.10;30.00
72576;DHT22;60613;48.658;2.328;2022-08-11T16:54:27;31.10;30.00
72576;DHT22;60613;48.658;2.328;2022-08-11T16:56:55;31.10;30.20
72576;DHT22;60613;48.658;2.328;2022-08-11T16:59:36;31.10;30.00
72576;DHT22;60613;48.658;2.328;2022-08-11T17:02:14;31.10;29.50
72576;DHT22;60613;48.658;2.328;2022-08-11T17:05:04;31.10;29.20
72576;DHT22;60613;48.658;2.328;2022-08-11T17:07:51;31.10;28.80
72576;DHT22;60613;48.658;2.328;2022-08-11T17:10:43;31.10;28.50
72576;DHT22;60613;48.658;2.328;2022-08-11T17:13:36;31.10;28.10
72576;DHT22;60613;48.658;2.328;2022-08-11T17:16:06;31.10;26.70
72576;DHT22;60613;48.658;2.328;2022-08-11T17:21:16;31.30;26.10
72576;DHT22;60613;48.658;2.328;2022-08-11T17:23:46;31.40;26.60
72576;DHT22;60613;48.658;2.328;2022-08-11T17:26:27;31.50;25.60
72576;DHT22;60613;48.658;2.328;2022-08-11T17:29:13;31.60;25.20
72576;DHT22;60613;48.658;2.328;2022-08-11T17:31:39;31.60;25.20
72576;DHT22;60613;48.658;2.328;2022-08-11T17:34:24;31.60;24.90
72576;DHT22;60613;48.658;2.328;2022-08-11T17:37:09;31.70;24.70
72576;DHT22;60613;48.658;2.328;2022-08-11T17:39:35;31.60;24.60
72576;DHT22;60613;48.658;2.328;2022-08-11T17:42:01;31.70;24.20
72576;DHT22;60613;48.658;2.328;2022-08-11T17:44:46;31.70;23.90
72576;DHT22;60613;48.658;2.328;2022-08-11T17:47:31;31.70;25.30
72576;DHT22;60613;48.658;2.328;2022-08-11T17:50:17;31.70;24.00
72576;DHT22;60613;48.658;2.328;2022-08-11T17:52:44;31.70;24.00
72576;DHT22;60613;48.658;2.328;2022-08-11T17:55:30;31.80;23.70
72576;DHT22;60613;48.658;2.328;2022-08-11T17:58:15;31.80;23.40
72576;DHT22;60613;48.658;2.328;2022-08-11T18:01:00;31.70;23.10
72576;DHT22;60613;48.658;2.328;2022-08-11T18:03:27;31.70;23.80
72576;DHT22;60613;48.658;2.328;2022-08-11T18:05:54;31.70;23.70
72576;DHT22;60613;48.658;2.328;2022-08-11T18:08:21;31.70;23.50
72576;DHT22;60613;48.658;2.328;2022-08-11T18:11:06;31.70;24.00
72576;DHT22;60613;48.658;2.328;2022-08-11T18:13:52;31.70;23.90
72576;DHT22;60613;48.658;2.328;2022-08-11T18:16:37;31.70;23.30
72576;DHT22;60613;48.658;2.328;2022-08-11T18:19:21;31.70;23.70
72576;DHT22;60613;48.658;2.328;2022-08-11T18:22:08;31.80;23.10
72576;DHT22;60613;48.658;2.328;2022-08-11T18:24:59;31.70;23.20
72576;DHT22;60613;48.658;2.328;2022-08-11T18:27:45;31.80;23.20
72576;DHT22;60613;48.658;2.328;2022-08-11T18:30:33;31.70;23.20
72576;DHT22;60613;48.658;2.328;2022-08-11T18:33:21;31.70;23.60
72576;DHT22;60613;48.658;2.328;2022-08-11T18:36:09;31.70;23.30
72576;DHT22;60613;48.658;2.328;2022-08-11T18:38:57;31.60;23.00
72576;DHT22;60613;48.658;2.328;2022-08-11T18:41:44;31.70;23.20
72576;DHT22;60613;48.658;2.328;2022-08-11T18:44:31;31.70;23.50
72576;DHT22;60613;48.658;2.328;2022-08-11T18:47:21;31.60;23.70
72576;DHT22;60613;48.658;2.328;2022-08-11T18:50:08;31.60;24.00
72576;DHT22;60613;48.658;2.328;2022-08-11T18:52:55;31.60;24.00
72576;DHT22;60613;48.658;2.328;2022-08-11T18:55:42;31.60;24.10
72576;DHT22;60613;48.658;2.328;2022-08-11T18:58:29;31.50;24.30
72576;DHT22;60613;48.658;2.328;2022-08-11T19:01:15;31.50;25.00
72576;DHT22;60613;48.658;2.328;2022-08-11T19:04:02;31.40;24.90
72576;DHT22;60613;48.658;2.328;2022-08-11T19:06:52;31.30;24.70
72576;DHT22;60613;48.658;2.328;2022-08-11T19:09:39;31.20;25.80
72576;DHT22;60613;48.658;2.328;2022-08-11T19:12:25;31.10;25.00
72576;DHT22;60613;48.658;2.328;2022-08-11T19:15:10;31.20;24.80
72576;DHT22;60613;48.658;2.328;2022-08-11T19:17:56;31.20;24.90
72576;DHT22;60613;48.658;2.328;2022-08-11T19:20:41;31.20;25.10
72576;DHT22;60613;48.658;2.328;2022-08-11T19:23:35;31.20;25.00
72576;DHT22;60613;48.658;2.328;2022-08-11T19:26:22;31.20;25.10
72576;DHT22;60613;48.658;2.328;2022-08-11T19:29:07;30.90;25.30
72576;DHT22;60613;48.658;2.328;2022-08-11T19:31:53;30.80;25.30
72576;DHT22;60613;48.658;2.328;2022-08-11T19:34:38;30.80;25.30
72576;DHT22;60613;48.658;2.328;2022-08-11T19:37:23;30.90;25.40
72576;DHT22;60613;48.658;2.328;2022-08-11T19:40:09;30.90;25.40
72576;DHT22;60613;48.658;2.328;2022-08-11T19:42:56;30.90;25.40
72576;DHT22;60613;48.658;2.328;2022-08-11T19:45:42;30.90;25.40
72576;DHT22;60613;48.658;2.328;2022-08-11T19:48:27;31.00;25.30